sensor_id;sensor_type;location;lat;lon;timestamp;P1;durP1;ratioP1;P2;durP2;ratioP2
49728;SDS011;35617;50.714;7.114;2022-09-13T00:01:54;5.68;;;3.65;;
49728;SDS011;35617;50.714;7.114;2022-09-13T00:04:20;6.82;;;3.88;;
49728;SDS011;35617;50.714;7.114;2022-09-13T00:06:46;6.25;;;4.05;;
49728;SDS011;35617;50.714;7.114;2022-09-13T00:09:11;6.15;;;4.28;;
49728;SDS011;35617;50.714;7.114;2022-09-13T00:11:37;6.15;;;4.00;;
49728;SDS011;35617;50.714;7.114;2022-09-13T00:14:03;6.43;;;3.90;;
49728;SDS011;35617;50.714;7.114;2022-09-13T00:16:29;7.85;;;4.13;;
49728;SDS011;35617;50.714;7.114;2022-09-13T00:18:54;8.35;;;3.80;;
49728;SDS011;35617;50.714;7.114;2022-09-13T00:21:21;7.03;;;3.90;;
49728;SDS011;35617;50.714;7.114;2022-09-13T00:23:49;5.65;;;3.97;;
49728;SDS011;35617;50.714;7.114;2022-09-13T00:26:21;6.10;;;3.97;;
49728;SDS011;35617;50.714;7.114;2022-09-13T00:28:49;6.95;;;4.32;;
49728;SDS011;35617;50.714;7.114;2022-09-13T00:31:17;7.78;;;4.07;;
49728;SDS011;35617;50.714;7.114;2022-09-13T00:33:44;5.63;;;4.28;;
49728;SDS011;35617;50.714;7.114;2022-09-13T00:36:10;6.30;;;4.05;;
49728;SDS011;35617;50.714;7.114;2022-09-13T00:38:36;6.70;;;3.97;;
49728;SDS011;35617;50.714;7.114;2022-09-13T00:41:04;8.02;;;4.28;;
49728;SDS011;35617;50.714;7.114;2022-09-13T00:43:50;6.90;;;3.97;;
49728;SDS011;35617;50.714;7.114;2022-09-13T00:46:22;6.72;;;4.13;;
49728;SDS011;35617;50.714;7.114;2022-09-13T00:48:59;7.18;;;4.22;;
49728;SDS011;35617;50.714;7.114;2022-09-13T00:51:31;9.27;;;4.88;;
49728;SDS011;35617;50.714;7.114;2022-09-13T00:53:57;6.72;;;3.90;;
49728;SDS011;35617;50.714;7.114;2022-09-13T00:56:42;5.70;;;4.20;;
49728;SDS011;35617;50.714;7.114;2022-09-13T00:59:16;7.25;;;4.18;;
49728;SDS011;35617;50.714;7.114;2022-09-13T01:01:51;7.03;;;4.22;;
49728;SDS011;35617;50.714;7.114;2022-09-13T01:04:19;6.43;;;4.55;;
49728;SDS011;35617;50.714;7.114;2022-09-13T01:06:46;5.82;;;3.95;;
49728;SDS011;35617;50.714;7.114;2022-09-13T01:09:14;5.95;;;3.95;;
49728;SDS011;35617;50.714;7.114;2022-09-13T01:11:50;5.75;;;3.95;;
49728;SDS011;35617;50.714;7.114;2022-09-13T01:14:28;6.70;;;3.80;;
49728;SDS011;35617;50.714;7.114;2022-09-13T01:16:57;6.15;;;4.32;;
49728;SDS011;35617;50.714;7.114;2022-09-13T01:19:24;5.85;;;3.65;;
49728;SDS011;35617;50.714;7.114;2022-09-13T01:24:48;6.65;;;4.00;;
49728;SDS011;35617;50.714;7.114;2022-09-13T01:27:22;5.65;;;4.05;;
49728;SDS011;35617;50.714;7.114;2022-09-13T01:30:16;5.40;;;3.63;;
49728;SDS011;35617;50.714;7.114;2022-09-13T01:36:02;7.90;;;4.78;;
49728;SDS011;35617;50.714;7.114;2022-09-13T01:44:25;6.07;;;3.85;;
49728;SDS011;35617;50.714;7.114;2022-09-13T01:52:29;5.72;;;3.60;;
49728;SDS011;35617;50.714;7.114;2022-09-13T01:55:04;5.57;;;3.92;;
49728;SDS011;35617;50.714;7.114;2022-09-13T01:57:37;6.38;;;3.80;;
49728;SDS011;35617;50.714;7.114;2022-09-13T02:00:13;5.57;;;3.95;;
49728;SDS011;35617;50.714;7.114;2022-09-13T02:08:17;7.35;;;3.80;;
49728;SDS011;35617;50.714;7.114;2022-09-13T02:10:57;6.68;;;4.30;;
49728;SDS011;35617;50.714;7.114;2022-09-13T02:13:29;7.93;;;4.15;;
49728;SDS011;35617;50.714;7.114;2022-09-13T02:16:09;6.88;;;4.10;;
49728;SDS011;35617;50.714;7.114;2022-09-13T02:18:40;6.45;;;3.90;;
49728;SDS011;35617;50.714;7.114;2022-09-13T02:21:12;7.57;;;4.60;;
49728;SDS011;35617;50.714;7.114;2022-09-13T02:23:45;5.80;;;3.58;;
49728;SDS011;35617;50.714;7.114;2022-09-13T02:26:14;7.65;;;4.38;;
49728;SDS011;35617;50.714;7.114;2022-09-13T02:28:42;7.22;;;4.30;;
49728;SDS011;35617;50.714;7.114;2022-09-13T02:31:11;6.50;;;4.57;;
49728;SDS011;35617;50.714;7.114;2022-09-13T02:33:43;6.78;;;4.13;;
49728;SDS011;35617;50.714;7.114;2022-09-13T02:36:14;8.13;;;4.43;;
49728;SDS011;35617;50.714;7.114;2022-09-13T02:38:52;6.72;;;4.40;;
49728;SDS011;35617;50.714;7.114;2022-09-13T02:43:59;7.28;;;4.25;;
49728;SDS011;35617;50.714;7.114;2022-09-13T02:46:45;8.48;;;4.47;;
49728;SDS011;35617;50.714;7.114;2022-09-13T02:49:42;8.88;;;6.57;;
49728;SDS011;35617;50.714;7.114;2022-09-13T02:52:40;6.85;;;4.55;;
49728;SDS011;35617;50.714;7.114;2022-09-13T02:57:51;9.32;;;4.53;;
49728;SDS011;35617;50.714;7.114;2022-09-13T03:00:24;6.00;;;3.90;;
49728;SDS011;35617;50.714;7.114;2022-09-13T03:02:49;8.25;;;4.18;;
49728;SDS011;35617;50.714;7.114;2022-09-13T03:05:17;6.85;;;4.18;;
49728;SDS011;35617;50.714;7.114;2022-09-13T03:07:43;8.20;;;4.57;;
49728;SDS011;35617;50.714;7.114;2022-09-13T03:10:09;6.57;;;4.32;;
49728;SDS011;35617;50.714;7.114;2022-09-13T03:20:57;6.13;;;4.30;;
49728;SDS011;35617;50.714;7.114;2022-09-13T03:23:46;10.20;;;4.45;;
49728;SDS011;35617;50.714;7.114;2022-09-13T03:31:47;7.45;;;4.85;;
49728;SDS011;35617;50.714;7.114;2022-09-13T03:39:51;7.17;;;3.97;;
49728;SDS011;35617;50.714;7.114;2022-09-13T03:42:27;6.10;;;3.90;;
49728;SDS011;35617;50.714;7.114;2022-09-13T03:44:58;7.40;;;4.25;;
49728;SDS011;35617;50.714;7.114;2022-09-13T03:47:27;6.75;;;4.50;;
49728;SDS011;35617;50.714;7.114;2022-09-13T03:49:56;8.93;;;5.13;;
49728;SDS011;35617;50.714;7.114;2022-09-13T03:52:23;7.88;;;4.68;;
49728;SDS011;35617;50.714;7.114;2022-09-13T03:54:49;9.02;;;5.00;;
49728;SDS011;35617;50.714;7.114;2022-09-13T03:57:19;7.05;;;4.60;;
49728;SDS011;35617;50.714;7.114;2022-09-13T03:59:52;7.85;;;4.47;;
49728;SDS011;35617;50.714;7.114;2022-09-13T04:02:20;5.95;;;4.30;;
49728;SDS011;35617;50.714;7.114;2022-09-13T04:04:48;7.20;;;4.40;;
49728;SDS011;35617;50.714;7.114;2022-09-13T04:07:19;8.75;;;4.78;;
49728;SDS011;35617;50.714;7.114;2022-09-13T04:09:46;7.53;;;4.28;;
49728;SDS011;35617;50.714;7.114;2022-09-13T04:12:13;7.70;;;4.38;;
49728;SDS011;35617;50.714;7.114;2022-09-13T04:14:40;6.97;;;4.40;;
49728;SDS011;35617;50.714;7.114;2022-09-13T04:17:07;7.57;;;4.32;;
49728;SDS011;35617;50.714;7.114;2022-09-13T04:19:32;6.82;;;4.30;;
49728;SDS011;35617;50.714;7.114;2022-09-13T04:21:58;6.65;;;4.00;;
49728;SDS011;35617;50.714;7.114;2022-09-13T04:24:27;7.05;;;4.00;;
49728;SDS011;35617;50.714;7.114;2022-09-13T04:26:54;8.50;;;4.00;;
49728;SDS011;35617;50.714;7.114;2022-09-13T04:29:21;6.10;;;3.97;;
49728;SDS011;35617;50.714;7.114;2022-09-13T04:31:48;7.60;;;3.92;;
49728;SDS011;35617;50.714;7.114;2022-09-13T04:34:15;7.40;;;4.10;;
49728;SDS011;35617;50.714;7.114;2022-09-13T04:36:42;8.60;;;4.38;;
49728;SDS011;35617;50.714;7.114;2022-09-13T04:39:09;8.85;;;4.13;;
49728;SDS011;35617;50.714;7.114;2022-09-13T04:41:35;9.65;;;4.30;;
49728;SDS011;35617;50.714;7.114;2022-09-13T04:44:00;7.47;;;4.38;;
49728;SDS011;35617;50.714;7.114;2022-09-13T04:46:26;6.75;;;4.35;;
49728;SDS011;35617;50.714;7.114;2022-09-13T04:48:53;6.97;;;4.32;;
49728;SDS011;35617;50.714;7.114;2022-09-13T04:51:19;7.68;;;4.35;;
49728;SDS011;35617;50.714;7.114;2022-09-13T04:53:46;7.90;;;4.63;;
49728;SDS011;35617;50.714;7.114;2022-09-13T04:56:17;8.95;;;4.57;;
49728;SDS011;35617;50.714;7.114;2022-09-13T04:58:43;8.77;;;4.97;;
49728;SDS011;35617;50.714;7.114;2022-09-13T05:01:09;7.40;;;4.20;;
49728;SDS011;35617;50.714;7.114;2022-09-13T05:03:35;6.95;;;4.05;;
49728;SDS011;35617;50.714;7.114;2022-09-13T05:06:05;8.55;;;4.32;;
49728;SDS011;35617;50.714;7.114;2022-09-13T05:08:35;7.60;;;4.28;;
49728;SDS011;35617;50.714;7.114;2022-09-13T05:11:01;8.48;;;4.47;;
49728;SDS011;35617;50.714;7.114;2022-09-13T05:13:27;5.70;;;3.75;;
49728;SDS011;35617;50.714;7.114;2022-09-13T05:15:54;8.15;;;4.22;;
49728;SDS011;35617;50.714;7.114;2022-09-13T05:18:21;8.82;;;4.25;;
49728;SDS011;35617;50.714;7.114;2022-09-13T05:20:47;6.03;;;3.85;;
49728;SDS011;35617;50.714;7.114;2022-09-13T05:23:12;9.60;;;4.20;;
49728;SDS011;35617;50.714;7.114;2022-09-13T05:25:38;10.20;;;4.40;;
49728;SDS011;35617;50.714;7.114;2022-09-13T05:28:03;9.18;;;5.07;;
49728;SDS011;35617;50.714;7.114;2022-09-13T05:30:29;7.75;;;4.72;;
49728;SDS011;35617;50.714;7.114;2022-09-13T05:32:55;9.13;;;4.90;;
49728;SDS011;35617;50.714;7.114;2022-09-13T05:35:22;8.80;;;4.75;;
49728;SDS011;35617;50.714;7.114;2022-09-13T05:37:48;8.65;;;5.00;;
49728;SDS011;35617;50.714;7.114;2022-09-13T05:40:13;7.90;;;5.13;;
49728;SDS011;35617;50.714;7.114;2022-09-13T05:42:39;9.27;;;4.68;;
49728;SDS011;35617;50.714;7.114;2022-09-13T05:45:05;11.02;;;5.53;;
49728;SDS011;35617;50.714;7.114;2022-09-13T05:47:55;9.80;;;4.85;;
49728;SDS011;35617;50.714;7.114;2022-09-13T05:50:28;8.02;;;4.43;;
49728;SDS011;35617;50.714;7.114;2022-09-13T05:52:54;7.15;;;4.65;;
49728;SDS011;35617;50.714;7.114;2022-09-13T05:55:21;10.55;;;5.00;;
49728;SDS011;35617;50.714;7.114;2022-09-13T05:57:47;7.85;;;4.45;;
49728;SDS011;35617;50.714;7.114;2022-09-13T06:00:13;8.55;;;4.90;;
49728;SDS011;35617;50.714;7.114;2022-09-13T06:02:40;7.93;;;4.07;;
49728;SDS011;35617;50.714;7.114;2022-09-13T06:05:06;7.18;;;4.35;;
49728;SDS011;35617;50.714;7.114;2022-09-13T06:07:34;8.07;;;4.30;;
49728;SDS011;35617;50.714;7.114;2022-09-13T06:09:59;6.10;;;4.10;;
49728;SDS011;35617;50.714;7.114;2022-09-13T06:12:25;7.20;;;4.55;;
49728;SDS011;35617;50.714;7.114;2022-09-13T06:14:51;8.27;;;4.40;;
49728;SDS011;35617;50.714;7.114;2022-09-13T06:17:16;7.40;;;3.83;;
49728;SDS011;35617;50.714;7.114;2022-09-13T06:19:42;9.20;;;4.75;;
49728;SDS011;35617;50.714;7.114;2022-09-13T06:22:08;5.97;;;3.88;;
49728;SDS011;35617;50.714;7.114;2022-09-13T06:24:34;7.03;;;4.30;;
49728;SDS011;35617;50.714;7.114;2022-09-13T06:27:01;9.88;;;4.28;;
49728;SDS011;35617;50.714;7.114;2022-09-13T06:29:27;8.88;;;4.68;;
49728;SDS011;35617;50.714;7.114;2022-09-13T06:31:52;7.53;;;4.05;;
49728;SDS011;35617;50.714;7.114;2022-09-13T06:34:19;8.48;;;4.15;;
49728;SDS011;35617;50.714;7.114;2022-09-13T06:36:44;8.77;;;3.90;;
49728;SDS011;35617;50.714;7.114;2022-09-13T06:39:10;8.55;;;4.20;;
49728;SDS011;35617;50.714;7.114;2022-09-13T06:41:36;8.73;;;4.32;;
49728;SDS011;35617;50.714;7.114;2022-09-13T06:44:02;6.47;;;4.50;;
49728;SDS011;35617;50.714;7.114;2022-09-13T06:46:28;6.90;;;4.03;;
49728;SDS011;35617;50.714;7.114;2022-09-13T06:48:57;8.77;;;3.80;;
49728;SDS011;35617;50.714;7.114;2022-09-13T06:51:24;7.07;;;3.97;;
49728;SDS011;35617;50.714;7.114;2022-09-13T06:53:51;5.20;;;3.47;;
49728;SDS011;35617;50.714;7.114;2022-09-13T06:56:20;7.55;;;4.25;;
49728;SDS011;35617;50.714;7.114;2022-09-13T06:58:49;7.45;;;3.63;;
49728;SDS011;35617;50.714;7.114;2022-09-13T07:01:20;5.45;;;3.53;;
49728;SDS011;35617;50.714;7.114;2022-09-13T07:03:56;6.68;;;3.55;;
49728;SDS011;35617;50.714;7.114;2022-09-13T07:06:31;6.63;;;3.80;;
49728;SDS011;35617;50.714;7.114;2022-09-13T07:08:59;7.07;;;3.60;;
49728;SDS011;35617;50.714;7.114;2022-09-13T07:11:45;8.50;;;4.10;;
49728;SDS011;35617;50.714;7.114;2022-09-13T07:14:13;5.75;;;3.90;;
49728;SDS011;35617;50.714;7.114;2022-09-13T07:16:43;7.15;;;3.30;;
49728;SDS011;35617;50.714;7.114;2022-09-13T07:19:14;5.63;;;3.20;;
49728;SDS011;35617;50.714;7.114;2022-09-13T07:21:41;6.53;;;3.50;;
49728;SDS011;35617;50.714;7.114;2022-09-13T07:24:07;6.82;;;3.35;;
49728;SDS011;35617;50.714;7.114;2022-09-13T07:26:33;6.20;;;3.03;;
49728;SDS011;35617;50.714;7.114;2022-09-13T07:29:00;6.45;;;3.42;;
49728;SDS011;35617;50.714;7.114;2022-09-13T07:33:58;7.72;;;3.30;;
49728;SDS011;35617;50.714;7.114;2022-09-13T07:36:26;6.90;;;3.50;;
49728;SDS011;35617;50.714;7.114;2022-09-13T07:38:53;19.10;;;16.80;;
49728;SDS011;35617;50.714;7.114;2022-09-13T07:41:20;7.75;;;3.65;;
49728;SDS011;35617;50.714;7.114;2022-09-13T07:43:48;6.05;;;4.28;;
49728;SDS011;35617;50.714;7.114;2022-09-13T07:46:24;7.30;;;3.35;;
49728;SDS011;35617;50.714;7.114;2022-09-13T07:48:51;8.00;;;3.33;;
49728;SDS011;35617;50.714;7.114;2022-09-13T07:51:19;7.25;;;3.50;;
49728;SDS011;35617;50.714;7.114;2022-09-13T07:53:47;6.35;;;3.30;;
49728;SDS011;35617;50.714;7.114;2022-09-13T07:56:17;6.30;;;3.00;;
49728;SDS011;35617;50.714;7.114;2022-09-13T07:58:45;7.13;;;3.35;;
49728;SDS011;35617;50.714;7.114;2022-09-13T08:03:54;6.28;;;3.22;;
49728;SDS011;35617;50.714;7.114;2022-09-13T08:08:51;6.38;;;2.92;;
49728;SDS011;35617;50.714;7.114;2022-09-13T08:11:19;8.50;;;3.30;;
49728;SDS011;35617;50.714;7.114;2022-09-13T08:13:46;6.47;;;2.85;;
49728;SDS011;35617;50.714;7.114;2022-09-13T08:16:13;6.47;;;3.10;;
49728;SDS011;35617;50.714;7.114;2022-09-13T08:18:47;6.07;;;2.90;;
49728;SDS011;35617;50.714;7.114;2022-09-13T08:21:14;5.47;;;2.97;;
49728;SDS011;35617;50.714;7.114;2022-09-13T08:23:40;4.65;;;2.90;;
49728;SDS011;35617;50.714;7.114;2022-09-13T08:26:06;5.35;;;3.08;;
49728;SDS011;35617;50.714;7.114;2022-09-13T08:28:33;5.88;;;3.22;;
49728;SDS011;35617;50.714;7.114;2022-09-13T08:31:09;6.43;;;3.08;;
49728;SDS011;35617;50.714;7.114;2022-09-13T08:33:44;7.53;;;3.15;;
49728;SDS011;35617;50.714;7.114;2022-09-13T08:36:12;7.88;;;3.20;;
49728;SDS011;35617;50.714;7.114;2022-09-13T08:38:43;6.38;;;3.10;;
49728;SDS011;35617;50.714;7.114;2022-09-13T08:44:17;8.27;;;3.60;;
49728;SDS011;35617;50.714;7.114;2022-09-13T08:46:58;6.80;;;3.15;;
49728;SDS011;35617;50.714;7.114;2022-09-13T08:49:29;6.60;;;3.28;;
49728;SDS011;35617;50.714;7.114;2022-09-13T08:52:02;6.63;;;3.38;;
49728;SDS011;35617;50.714;7.114;2022-09-13T08:54:40;6.25;;;3.33;;
49728;SDS011;35617;50.714;7.114;2022-09-13T08:59:43;8.02;;;3.78;;
49728;SDS011;35617;50.714;7.114;2022-09-13T09:02:53;7.47;;;3.03;;
49728;SDS011;35617;50.714;7.114;2022-09-13T09:05:20;7.13;;;3.20;;
49728;SDS011;35617;50.714;7.114;2022-09-13T09:07:58;7.65;;;3.08;;
49728;SDS011;35617;50.714;7.114;2022-09-13T09:10:50;6.63;;;2.90;;
49728;SDS011;35617;50.714;7.114;2022-09-13T09:13:23;7.57;;;3.30;;
49728;SDS011;35617;50.714;7.114;2022-09-13T09:16:16;6.80;;;3.33;;
49728;SDS011;35617;50.714;7.114;2022-09-13T09:19:16;5.75;;;2.72;;
49728;SDS011;35617;50.714;7.114;2022-09-13T09:21:43;5.60;;;2.90;;
49728;SDS011;35617;50.714;7.114;2022-09-13T09:24:20;7.07;;;3.10;;
49728;SDS011;35617;50.714;7.114;2022-09-13T09:26:48;6.22;;;3.08;;
49728;SDS011;35617;50.714;7.114;2022-09-13T09:29:21;5.43;;;2.90;;
49728;SDS011;35617;50.714;7.114;2022-09-13T09:31:55;6.25;;;2.95;;
49728;SDS011;35617;50.714;7.114;2022-09-13T09:36:58;6.63;;;2.70;;
49728;SDS011;35617;50.714;7.114;2022-09-13T09:39:31;5.38;;;2.88;;
49728;SDS011;35617;50.714;7.114;2022-09-13T09:41:57;7.35;;;2.70;;
49728;SDS011;35617;50.714;7.114;2022-09-13T09:44:25;7.82;;;2.80;;
49728;SDS011;35617;50.714;7.114;2022-09-13T09:46:56;4.47;;;2.28;;
49728;SDS011;35617;50.714;7.114;2022-09-13T09:52:16;8.02;;;2.53;;
49728;SDS011;35617;50.714;7.114;2022-09-13T09:54:47;4.68;;;2.15;;
49728;SDS011;35617;50.714;7.114;2022-09-13T09:57:14;4.60;;;2.38;;
49728;SDS011;35617;50.714;7.114;2022-09-13T09:59:42;4.03;;;2.40;;
49728;SDS011;35617;50.714;7.114;2022-09-13T10:02:13;4.82;;;2.42;;
49728;SDS011;35617;50.714;7.114;2022-09-13T10:04:43;6.03;;;2.20;;
49728;SDS011;35617;50.714;7.114;2022-09-13T10:10:01;5.32;;;2.13;;
49728;SDS011;35617;50.714;7.114;2022-09-13T10:12:31;6.00;;;2.20;;
49728;SDS011;35617;50.714;7.114;2022-09-13T10:15:19;4.93;;;2.10;;
49728;SDS011;35617;50.714;7.114;2022-09-13T10:18:00;5.90;;;2.30;;
49728;SDS011;35617;50.714;7.114;2022-09-13T10:20:40;7.85;;;2.33;;
49728;SDS011;35617;50.714;7.114;2022-09-13T10:25:41;4.65;;;2.13;;
49728;SDS011;35617;50.714;7.114;2022-09-13T10:28:11;5.85;;;2.60;;
49728;SDS011;35617;50.714;7.114;2022-09-13T10:30:41;4.50;;;2.10;;
49728;SDS011;35617;50.714;7.114;2022-09-13T10:35:46;8.45;;;2.42;;
49728;SDS011;35617;50.714;7.114;2022-09-13T10:38:18;5.82;;;2.50;;
49728;SDS011;35617;50.714;7.114;2022-09-13T10:40:50;5.90;;;2.33;;
49728;SDS011;35617;50.714;7.114;2022-09-13T10:43:16;5.32;;;2.47;;
49728;SDS011;35617;50.714;7.114;2022-09-13T10:45:44;6.68;;;2.30;;
49728;SDS011;35617;50.714;7.114;2022-09-13T10:48:14;5.80;;;2.55;;
49728;SDS011;35617;50.714;7.114;2022-09-13T10:50:58;7.63;;;2.90;;
49728;SDS011;35617;50.714;7.114;2022-09-13T10:56:18;5.70;;;2.50;;
49728;SDS011;35617;50.714;7.114;2022-09-13T10:58:49;4.53;;;2.20;;
49728;SDS011;35617;50.714;7.114;2022-09-13T11:01:27;5.30;;;2.30;;
49728;SDS011;35617;50.714;7.114;2022-09-13T11:04:09;4.50;;;2.20;;
49728;SDS011;35617;50.714;7.114;2022-09-13T11:09:45;4.15;;;2.13;;
49728;SDS011;35617;50.714;7.114;2022-09-13T11:12:27;5.15;;;1.80;;
49728;SDS011;35617;50.714;7.114;2022-09-13T11:15:24;6.20;;;2.15;;
49728;SDS011;35617;50.714;7.114;2022-09-13T11:23:42;6.40;;;2.22;;
49728;SDS011;35617;50.714;7.114;2022-09-13T11:28:47;5.75;;;2.00;;
49728;SDS011;35617;50.714;7.114;2022-09-13T11:34:36;5.30;;;2.20;;
49728;SDS011;35617;50.714;7.114;2022-09-13T11:57:31;6.00;;;2.30;;
49728;SDS011;35617;50.714;7.114;2022-09-13T12:00:44;4.88;;;1.90;;
49728;SDS011;35617;50.714;7.114;2022-09-13T12:06:02;3.70;;;1.80;;
49728;SDS011;35617;50.714;7.114;2022-09-13T12:08:33;4.80;;;2.00;;
49728;SDS011;35617;50.714;7.114;2022-09-13T12:11:02;4.60;;;2.03;;
49728;SDS011;35617;50.714;7.114;2022-09-13T12:13:44;4.80;;;1.98;;
49728;SDS011;35617;50.714;7.114;2022-09-13T12:16:34;5.40;;;1.98;;
49728;SDS011;35617;50.714;7.114;2022-09-13T12:19:02;4.63;;;1.83;;
49728;SDS011;35617;50.714;7.114;2022-09-13T12:24:13;6.28;;;2.05;;
49728;SDS011;35617;50.714;7.114;2022-09-13T12:32:15;5.28;;;1.85;;
49728;SDS011;35617;50.714;7.114;2022-09-13T12:40:04;5.82;;;1.60;;
49728;SDS011;35617;50.714;7.114;2022-09-13T12:53:21;4.13;;;1.92;;
49728;SDS011;35617;50.714;7.114;2022-09-13T13:01:43;4.45;;;1.83;;
49728;SDS011;35617;50.714;7.114;2022-09-13T13:04:16;5.28;;;2.10;;
49728;SDS011;35617;50.714;7.114;2022-09-13T13:06:52;5.60;;;2.05;;
49728;SDS011;35617;50.714;7.114;2022-09-13T13:12:50;4.82;;;2.03;;
49728;SDS011;35617;50.714;7.114;2022-09-13T13:36:26;5.25;;;2.33;;
49728;SDS011;35617;50.714;7.114;2022-09-13T13:38:54;5.43;;;1.92;;
49728;SDS011;35617;50.714;7.114;2022-09-13T13:43:59;4.90;;;1.85;;
49728;SDS011;35617;50.714;7.114;2022-09-13T13:46:27;4.43;;;1.73;;
49728;SDS011;35617;50.714;7.114;2022-09-13T13:48:55;4.88;;;1.70;;
49728;SDS011;35617;50.714;7.114;2022-09-13T13:51:42;4.20;;;2.05;;
49728;SDS011;35617;50.714;7.114;2022-09-13T13:56:53;6.30;;;2.00;;
49728;SDS011;35617;50.714;7.114;2022-09-13T13:59:26;3.88;;;1.60;;
49728;SDS011;35617;50.714;7.114;2022-09-13T14:01:56;5.05;;;1.80;;
49728;SDS011;35617;50.714;7.114;2022-09-13T14:07:11;5.13;;;1.60;;
49728;SDS011;35617;50.714;7.114;2022-09-13T14:15:22;5.72;;;1.90;;
49728;SDS011;35617;50.714;7.114;2022-09-13T14:20:56;5.47;;;2.25;;
49728;SDS011;35617;50.714;7.114;2022-09-13T14:23:23;4.68;;;1.48;;
49728;SDS011;35617;50.714;7.114;2022-09-13T14:25:53;4.50;;;1.77;;
49728;SDS011;35617;50.714;7.114;2022-09-13T14:28:20;5.05;;;1.80;;
49728;SDS011;35617;50.714;7.114;2022-09-13T14:30:47;4.20;;;1.40;;
49728;SDS011;35617;50.714;7.114;2022-09-13T14:33:28;5.35;;;1.80;;
49728;SDS011;35617;50.714;7.114;2022-09-13T14:36:01;5.07;;;1.73;;
49728;SDS011;35617;50.714;7.114;2022-09-13T14:38:46;5.60;;;1.90;;
49728;SDS011;35617;50.714;7.114;2022-09-13T14:41:19;7.03;;;1.90;;
49728;SDS011;35617;50.714;7.114;2022-09-13T14:43:47;5.90;;;1.73;;
49728;SDS011;35617;50.714;7.114;2022-09-13T14:46:17;5.18;;;1.80;;
49728;SDS011;35617;50.714;7.114;2022-09-13T14:49:02;7.18;;;1.80;;
49728;SDS011;35617;50.714;7.114;2022-09-13T14:51:32;5.05;;;1.88;;
49728;SDS011;35617;50.714;7.114;2022-09-13T14:57:05;3.90;;;1.80;;
49728;SDS011;35617;50.714;7.114;2022-09-13T14:59:40;5.35;;;1.90;;
49728;SDS011;35617;50.714;7.114;2022-09-13T15:05:16;4.90;;;1.95;;
49728;SDS011;35617;50.714;7.114;2022-09-13T15:07:43;4.03;;;1.70;;
49728;SDS011;35617;50.714;7.114;2022-09-13T15:13:15;4.85;;;2.05;;
49728;SDS011;35617;50.714;7.114;2022-09-13T15:15:41;4.63;;;2.10;;
49728;SDS011;35617;50.714;7.114;2022-09-13T15:28:24;3.80;;;1.77;;
49728;SDS011;35617;50.714;7.114;2022-09-13T15:30:52;4.68;;;2.08;;
49728;SDS011;35617;50.714;7.114;2022-09-13T15:33:24;5.57;;;2.05;;
49728;SDS011;35617;50.714;7.114;2022-09-13T15:36:13;5.38;;;2.05;;
49728;SDS011;35617;50.714;7.114;2022-09-13T15:41:42;4.55;;;2.10;;
49728;SDS011;35617;50.714;7.114;2022-09-13T15:44:33;4.85;;;1.98;;
49728;SDS011;35617;50.714;7.114;2022-09-13T15:46:59;4.53;;;2.05;;
49728;SDS011;35617;50.714;7.114;2022-09-13T15:49:28;4.90;;;2.08;;
49728;SDS011;35617;50.714;7.114;2022-09-13T15:51:56;5.22;;;2.03;;
49728;SDS011;35617;50.714;7.114;2022-09-13T15:54:25;5.45;;;2.40;;
49728;SDS011;35617;50.714;7.114;2022-09-13T15:56:59;5.10;;;2.00;;
49728;SDS011;35617;50.714;7.114;2022-09-13T15:59:25;6.07;;;2.10;;
49728;SDS011;35617;50.714;7.114;2022-09-13T16:01:51;7.85;;;1.77;;
49728;SDS011;35617;50.714;7.114;2022-09-13T16:04:17;6.75;;;2.50;;
49728;SDS011;35617;50.714;7.114;2022-09-13T16:06:43;8.55;;;2.00;;
49728;SDS011;35617;50.714;7.114;2022-09-13T16:09:19;5.22;;;2.10;;
49728;SDS011;35617;50.714;7.114;2022-09-13T16:11:48;6.15;;;2.20;;
49728;SDS011;35617;50.714;7.114;2022-09-13T16:14:15;6.15;;;2.05;;
49728;SDS011;35617;50.714;7.114;2022-09-13T16:16:41;7.38;;;2.28;;
49728;SDS011;35617;50.714;7.114;2022-09-13T16:19:15;5.50;;;1.95;;
49728;SDS011;35617;50.714;7.114;2022-09-13T16:21:43;4.55;;;2.20;;
49728;SDS011;35617;50.714;7.114;2022-09-13T16:24:08;5.85;;;2.30;;
49728;SDS011;35617;50.714;7.114;2022-09-13T16:26:34;7.47;;;2.58;;
49728;SDS011;35617;50.714;7.114;2022-09-13T16:29:00;7.18;;;2.47;;
49728;SDS011;35617;50.714;7.114;2022-09-13T16:31:26;5.28;;;2.33;;
49728;SDS011;35617;50.714;7.114;2022-09-13T16:33:51;9.75;;;3.35;;
49728;SDS011;35617;50.714;7.114;2022-09-13T16:36:17;6.68;;;2.85;;
49728;SDS011;35617;50.714;7.114;2022-09-13T16:38:43;9.57;;;2.65;;
49728;SDS011;35617;50.714;7.114;2022-09-13T16:41:08;8.75;;;2.53;;
49728;SDS011;35617;50.714;7.114;2022-09-13T16:43:35;8.45;;;3.00;;
49728;SDS011;35617;50.714;7.114;2022-09-13T16:46:05;6.18;;;3.03;;
49728;SDS011;35617;50.714;7.114;2022-09-13T16:48:34;7.00;;;3.00;;
49728;SDS011;35617;50.714;7.114;2022-09-13T16:51:10;5.00;;;2.72;;
49728;SDS011;35617;50.714;7.114;2022-09-13T16:53:38;7.50;;;3.20;;
49728;SDS011;35617;50.714;7.114;2022-09-13T16:56:12;8.98;;;4.93;;
49728;SDS011;35617;50.714;7.114;2022-09-13T16:58:42;7.28;;;2.78;;
49728;SDS011;35617;50.714;7.114;2022-09-13T17:01:12;6.55;;;2.83;;
49728;SDS011;35617;50.714;7.114;2022-09-13T17:03:39;9.00;;;3.45;;
49728;SDS011;35617;50.714;7.114;2022-09-13T17:06:09;6.43;;;3.22;;
49728;SDS011;35617;50.714;7.114;2022-09-13T17:08:50;7.30;;;3.28;;
49728;SDS011;35617;50.714;7.114;2022-09-13T17:11:18;6.32;;;3.13;;
49728;SDS011;35617;50.714;7.114;2022-09-13T17:13:45;6.18;;;2.80;;
49728;SDS011;35617;50.714;7.114;2022-09-13T17:16:46;6.22;;;3.30;;
49728;SDS011;35617;50.714;7.114;2022-09-13T17:19:11;6.18;;;3.00;;
49728;SDS011;35617;50.714;7.114;2022-09-13T17:24:34;8.15;;;3.25;;
49728;SDS011;35617;50.714;7.114;2022-09-13T17:27:01;7.35;;;3.97;;
49728;SDS011;35617;50.714;7.114;2022-09-13T17:29:32;7.55;;;3.67;;
49728;SDS011;35617;50.714;7.114;2022-09-13T17:31:59;6.38;;;2.95;;
49728;SDS011;35617;50.714;7.114;2022-09-13T17:34:27;5.55;;;3.28;;
49728;SDS011;35617;50.714;7.114;2022-09-13T17:36:56;8.05;;;3.10;;
49728;SDS011;35617;50.714;7.114;2022-09-13T17:49:25;5.47;;;3.38;;
49728;SDS011;35617;50.714;7.114;2022-09-13T17:51:50;5.78;;;3.50;;
49728;SDS011;35617;50.714;7.114;2022-09-13T17:54:33;6.93;;;3.42;;
49728;SDS011;35617;50.714;7.114;2022-09-13T17:57:14;5.97;;;3.35;;
49728;SDS011;35617;50.714;7.114;2022-09-13T17:59:39;6.70;;;3.30;;
49728;SDS011;35617;50.714;7.114;2022-09-13T18:02:05;6.10;;;3.58;;
49728;SDS011;35617;50.714;7.114;2022-09-13T18:04:31;6.68;;;3.63;;
49728;SDS011;35617;50.714;7.114;2022-09-13T18:06:56;9.95;;;5.20;;
49728;SDS011;35617;50.714;7.114;2022-09-13T18:09:22;6.53;;;3.78;;
49728;SDS011;35617;50.714;7.114;2022-09-13T18:11:48;8.32;;;4.30;;
49728;SDS011;35617;50.714;7.114;2022-09-13T18:14:15;8.00;;;4.15;;
49728;SDS011;35617;50.714;7.114;2022-09-13T18:16:42;7.13;;;3.92;;
49728;SDS011;35617;50.714;7.114;2022-09-13T18:19:08;6.80;;;3.58;;
49728;SDS011;35617;50.714;7.114;2022-09-13T18:21:34;8.15;;;3.97;;
49728;SDS011;35617;50.714;7.114;2022-09-13T18:24:00;6.10;;;3.70;;
49728;SDS011;35617;50.714;7.114;2022-09-13T18:26:26;8.02;;;4.68;;
49728;SDS011;35617;50.714;7.114;2022-09-13T18:28:54;8.02;;;4.32;;
49728;SDS011;35617;50.714;7.114;2022-09-13T18:31:22;7.10;;;4.25;;
49728;SDS011;35617;50.714;7.114;2022-09-13T18:33:52;7.25;;;3.72;;
49728;SDS011;35617;50.714;7.114;2022-09-13T18:36:21;5.93;;;3.67;;
49728;SDS011;35617;50.714;7.114;2022-09-13T18:38:47;6.60;;;3.35;;
49728;SDS011;35617;50.714;7.114;2022-09-13T18:41:18;9.40;;;4.13;;
49728;SDS011;35617;50.714;7.114;2022-09-13T18:43:46;7.05;;;3.03;;
49728;SDS011;35617;50.714;7.114;2022-09-13T18:46:15;6.00;;;3.00;;
49728;SDS011;35617;50.714;7.114;2022-09-13T18:48:43;7.00;;;3.55;;
49728;SDS011;35617;50.714;7.114;2022-09-13T18:51:16;7.65;;;3.28;;